Terminal Aerodrome Forecast
Issued by NWS

Home | Current Version | Previous Version | Graphics & Text | Print | Product List | Glossary On
Versions: 1 2 3 4 5 6 7 8 9 10 11 12 13 14 15 16 17
024
FTUS43 KBIS 211734
TAFMOT
TAF
KMOT 211734Z 2118/2218 16004KT 4SM BR OVC010
     FM212100 28004KT 5SM BR OVC008
     FM221200 29008KT P6SM OVC003
     FM221700 29010KT P6SM OVC010=

USA.gov is the U.S. government's official web portal to all federal, state and local government web resources and services.